createdAt,value
2016-12-12T00:00:38.503Z,21.56
2016-12-12T00:01:38.829Z,21.68
2016-12-12T00:02:38.866Z,21.56
2016-12-12T00:03:38.588Z,21.68
2016-12-12T00:04:38.308Z,21.58
2016-12-12T00:05:38.633Z,21.58
2016-12-12T00:06:38.973Z,21.54
2016-12-12T00:07:38.706Z,21.67
2016-12-12T00:08:38.739Z,21.69
2016-12-12T00:09:39.068Z,21.59
2016-12-12T00:10:39.084Z,21.59
2016-12-12T00:11:39.118Z,21.71
2016-12-12T00:12:39.145Z,21.58
2016-12-12T00:13:39.178Z,21.59
2016-12-12T00:14:39.231Z,21.69
2016-12-12T00:15:39.232Z,21.61
2016-12-12T00:16:38.968Z,21.65
2016-12-12T00:17:38.981Z,21.61
2016-12-12T00:18:39.018Z,21.58
2016-12-12T00:19:39.035Z,21.56
2016-12-12T00:20:39.368Z,21.58
2016-12-12T00:21:39.392Z,21.53
2016-12-12T00:22:39.121Z,21.58
2016-12-12T00:23:39.142Z,21.54
2016-12-12T00:24:39.491Z,21.59
2016-12-12T00:25:39.207Z,21.49
2016-12-12T00:26:39.236Z,21.49
2016-12-12T00:27:39.261Z,21.5
2016-12-12T00:28:39.582Z,21.58
2016-12-12T00:29:39.606Z,21.53
2016-12-12T00:30:39.351Z,21.49
2016-12-12T00:31:39.668Z,21.46
2016-12-12T00:32:39.690Z,21.47
2016-12-12T00:33:39.733Z,21.47
2016-12-12T00:34:39.162Z,21.54
2016-12-12T00:35:39.187Z,21.47
2016-12-12T00:36:39.808Z,21.53
2016-12-12T00:37:39.837Z,21.49
2016-12-12T00:38:39.561Z,21.38
2016-12-12T00:39:39.594Z,21.49
2016-12-12T00:40:39.923Z,21.4
2016-12-12T00:41:39.652Z,21.44
2016-12-12T00:42:39.381Z,21.46
2016-12-12T00:43:39.709Z,21.4
2016-12-12T00:44:40.054Z,21.42
2016-12-12T00:45:39.763Z,21.32
2016-12-12T00:46:40.099Z,21.37
2016-12-12T00:47:39.812Z,21.38
2016-12-12T00:48:39.845Z,21.37
2016-12-12T00:49:39.566Z,21.29
2016-12-12T00:50:40.199Z,21.43
2016-12-12T00:51:39.628Z,21.34
2016-12-12T00:52:39.964Z,21.44
2016-12-12T00:53:40.294Z,21.37
2016-12-12T00:54:40.321Z,21.38
2016-12-12T00:55:40.339Z,21.37
2016-12-12T00:56:40.366Z,21.29
2016-12-12T00:57:40.388Z,21.31
2016-12-12T00:58:40.124Z,21.38
2016-12-12T00:59:40.454Z,21.35
2016-12-12T01:00:39.878Z,21.28
2016-12-12T01:01:40.535Z,21.34
2016-12-12T01:02:39.939Z,21.28
2016-12-12T01:03:40.265Z,21.24
2016-12-12T01:04:40.581Z,21.32
2016-12-12T01:05:40.318Z,21.31
2016-12-12T01:06:40.647Z,21.24
2016-12-12T01:07:40.691Z,21.31
2016-12-12T01:08:40.712Z,21.31
2016-12-12T01:09:40.430Z,21.29
2016-12-12T01:10:40.163Z,21.4
2016-12-12T01:11:40.486Z,21.28
2016-12-12T01:12:40.521Z,21.24
2016-12-12T01:13:40.844Z,21.24
2016-12-12T01:14:40.561Z,21.25
2016-12-12T01:15:40.907Z,21.25
2016-12-12T01:16:40.932Z,21.24
2016-12-12T01:17:40.648Z,21.22
2016-12-12T01:18:40.689Z,21.29
2016-12-12T01:19:40.717Z,21.29
2016-12-12T01:20:40.734Z,21.28
2016-12-12T01:21:40.463Z,21.13
2016-12-12T01:22:40.491Z,21.25
2016-12-12T01:23:41.124Z,21.22
2016-12-12T01:24:41.161Z,21.12
2016-12-12T01:25:41.179Z,21.17
2016-12-12T01:26:41.214Z,21.17
2016-12-12T01:27:40.959Z,21.22
2016-12-12T01:28:40.661Z,21.19
2016-12-12T01:29:40.673Z,21.21
2016-12-12T01:30:41.322Z,21.16
2016-12-12T01:31:41.342Z,21.14
2016-12-12T01:32:41.079Z,21.14
2016-12-12T01:33:41.100Z,21.12
2016-12-12T01:34:41.134Z,21.16
2016-12-12T01:35:41.466Z,21.17
2016-12-12T01:36:41.190Z,21.17
2016-12-12T01:37:41.529Z,21.13
2016-12-12T01:38:41.544Z,21.14
2016-12-12T01:39:41.568Z,21.13
2016-12-12T01:40:41.290Z,21.1
2016-12-12T01:41:41.622Z,21.16
2016-12-12T01:42:41.648Z,21.06
2016-12-12T01:43:41.683Z,21.1
2016-12-12T01:44:41.720Z,21.14
2016-12-12T01:45:41.436Z,21.07
2016-12-12T01:46:41.165Z,21.09
2016-12-12T01:47:41.789Z,21.07
2016-12-12T01:48:41.515Z,21.14
2016-12-12T01:49:41.839Z,21.04
2016-12-12T01:50:41.568Z,21.07
2016-12-12T01:51:41.909Z,21.09
2016-12-12T01:52:41.935Z,21.06
2016-12-12T01:53:41.954Z,21.06
2016-12-12T01:54:41.984Z,21.04
2016-12-12T01:55:42.043Z,21.1
2016-12-12T01:56:42.037Z,21.03
2016-12-12T01:57:42.069Z,21.03
2016-12-12T01:58:42.098Z,21.07
2016-12-12T01:59:41.818Z,20.99
2016-12-12T02:00:42.143Z,21.01
2016-12-12T02:01:41.876Z,21.06
2016-12-12T02:02:41.913Z,20.99
2016-12-12T02:03:41.622Z,20.99
2016-12-12T02:04:42.267Z,21.01
2016-12-12T02:05:42.284Z,21.04
2016-12-12T02:06:42.004Z,21.04
2016-12-12T02:07:42.345Z,21.06
2016-12-12T02:08:42.373Z,21.04
2016-12-12T02:09:42.398Z,20.91
2016-12-12T02:10:42.123Z,20.95
2016-12-12T02:11:42.159Z,21.1
2016-12-12T02:12:42.188Z,21.01
2016-12-12T02:13:42.505Z,20.91
2016-12-12T02:14:42.537Z,20.94
2016-12-12T02:15:42.555Z,20.97
2016-12-12T02:16:42.594Z,20.94
2016-12-12T02:17:42.624Z,20.98
2016-12-12T02:18:42.657Z,20.99
2016-12-12T02:19:42.678Z,20.95
2016-12-12T02:20:42.403Z,20.98
2016-12-12T02:21:42.122Z,20.94
2016-12-12T02:22:42.452Z,20.98
2016-12-12T02:23:42.480Z,20.97
2016-12-12T02:24:42.513Z,21.01
2016-12-12T02:25:42.534Z,20.94
2016-12-12T02:26:42.879Z,21.01
2016-12-12T02:27:42.889Z,21.04
2016-12-12T02:28:42.628Z,21.04
2016-12-12T02:29:42.657Z,20.92
2016-12-12T02:30:42.683Z,20.97
2016-12-12T02:31:42.706Z,20.92
2016-12-12T02:32:42.431Z,20.97
2016-12-12T02:33:42.760Z,21.01
2016-12-12T02:34:42.486Z,21.06
2016-12-12T02:35:43.121Z,20.89
2016-12-12T02:36:42.850Z,20.92
2016-12-12T02:37:42.879Z,20.94
2016-12-12T02:38:43.200Z,20.98
2016-12-12T02:39:42.923Z,20.98
2016-12-12T02:40:42.948Z,20.89
2016-12-12T02:41:43.290Z,20.85
2016-12-12T02:42:42.999Z,20.88
2016-12-12T02:43:43.335Z,20.99
2016-12-12T02:44:43.068Z,20.95
2016-12-12T02:45:43.385Z,20.85
2016-12-12T02:46:43.426Z,21.01
2016-12-12T02:47:43.455Z,20.94
2016-12-12T02:48:43.166Z,20.98
2016-12-12T02:49:43.495Z,20.95
2016-12-12T02:50:43.526Z,20.87
2016-12-12T02:51:43.565Z,20.89
2016-12-12T02:52:43.582Z,20.87
2016-12-12T02:53:43.307Z,20.89
2016-12-12T02:54:43.647Z,20.91
2016-12-12T02:55:43.674Z,20.85
2016-12-12T02:56:43.690Z,20.85
2016-12-12T02:57:43.713Z,20.94
2016-12-12T02:58:43.750Z,20.87
2016-12-12T02:59:43.171Z,20.87
2016-12-12T03:00:43.812Z,20.87
2016-12-12T03:01:43.828Z,20.87
2016-12-12T03:02:43.562Z,20.88
2016-12-12T03:03:43.618Z,20.85
2016-12-12T03:04:43.903Z,20.84
2016-12-12T03:05:43.938Z,20.88
2016-12-12T03:06:43.964Z,20.87
2016-12-12T03:07:43.997Z,20.82
2016-12-12T03:08:44.025Z,20.87
2016-12-12T03:09:43.746Z,20.89
2016-12-12T03:10:43.776Z,20.91
2016-12-12T03:11:43.806Z,20.8
2016-12-12T03:12:44.140Z,20.91
2016-12-12T03:13:43.852Z,20.88
2016-12-12T03:14:44.182Z,20.92
2016-12-12T03:15:44.210Z,20.88
2016-12-12T03:16:44.243Z,20.88
2016-12-12T03:17:44.264Z,20.88
2016-12-12T03:18:44.305Z,20.87
2016-12-12T03:19:44.342Z,20.85
2016-12-12T03:20:44.363Z,20.88
2016-12-12T03:21:44.079Z,20.88
2016-12-12T03:22:44.407Z,20.84
2016-12-12T03:23:44.129Z,20.88
2016-12-12T03:24:44.453Z,20.91
2016-12-12T03:25:44.490Z,20.82
2016-12-12T03:26:44.529Z,20.84
2016-12-12T03:27:44.548Z,20.84
2016-12-12T03:28:44.584Z,20.8
2016-12-12T03:29:44.297Z,20.87
2016-12-12T03:30:44.625Z,20.87
2016-12-12T03:31:44.358Z,20.77
2016-12-12T03:32:44.074Z,20.73
2016-12-12T03:33:44.399Z,20.79
2016-12-12T03:34:44.428Z,20.8
2016-12-12T03:35:44.160Z,20.73
2016-12-12T03:36:44.502Z,20.8
2016-12-12T03:37:44.830Z,20.82
2016-12-12T03:38:44.547Z,20.8
2016-12-12T03:39:44.572Z,20.87
2016-12-12T03:40:44.900Z,20.82
2016-12-12T03:41:44.932Z,20.76
2016-12-12T03:42:44.961Z,20.82
2016-12-12T03:43:44.682Z,20.82
2016-12-12T03:44:44.712Z,20.73
2016-12-12T03:45:45.036Z,20.8
2016-12-12T03:46:44.768Z,20.76
2016-12-12T03:47:44.797Z,20.87
2016-12-12T03:48:44.814Z,20.76
2016-12-12T03:49:44.838Z,20.77
2016-12-12T03:50:45.179Z,20.76
2016-12-12T03:51:45.208Z,20.79
2016-12-12T03:52:45.204Z,20.73
2016-12-12T03:53:45.018Z,20.69
2016-12-12T03:54:44.982Z,20.74
2016-12-12T03:55:45.319Z,20.73
2016-12-12T03:56:45.331Z,20.79
2016-12-12T03:57:45.056Z,20.73
2016-12-12T03:58:45.389Z,20.69
2016-12-12T03:59:45.417Z,20.73
2016-12-12T04:00:45.462Z,20.76
2016-12-12T04:01:45.483Z,20.76
2016-12-12T04:02:45.508Z,20.74
2016-12-12T04:03:44.932Z,20.69
2016-12-12T04:04:45.253Z,20.69
2016-12-12T04:05:45.294Z,20.72
2016-12-12T04:06:45.316Z,20.7
2016-12-12T04:07:45.647Z,20.73
2016-12-12T04:08:45.671Z,20.82
2016-12-12T04:09:45.693Z,20.73
2016-12-12T04:10:45.119Z,20.69
2016-12-12T04:11:45.150Z,20.77
2016-12-12T04:12:45.774Z,20.79
2016-12-12T04:13:45.491Z,20.73
2016-12-12T04:14:45.831Z,20.73
2016-12-12T04:15:45.864Z,20.7
2016-12-12T04:16:45.878Z,20.72
2016-12-12T04:17:45.918Z,20.77
2016-12-12T04:18:45.954Z,20.72
2016-12-12T04:19:45.672Z,20.69
2016-12-12T04:20:45.392Z,20.76
2016-12-12T04:21:45.721Z,20.79
2016-12-12T04:22:46.053Z,20.64
2016-12-12T04:23:46.082Z,20.66
2016-12-12T04:24:45.794Z,20.66
2016-12-12T04:25:46.144Z,20.66
2016-12-12T04:26:45.856Z,20.62
2016-12-12T04:27:45.889Z,20.72
2016-12-12T04:28:46.225Z,20.69
2016-12-12T04:29:46.237Z,20.74
2016-12-12T04:30:45.962Z,20.67
2016-12-12T04:31:46.299Z,20.72
2016-12-12T04:32:46.319Z,20.69
2016-12-12T04:33:46.048Z,20.72
2016-12-12T04:34:46.385Z,20.62
2016-12-12T04:35:46.093Z,20.61
2016-12-12T04:36:45.827Z,20.72
2016-12-12T04:37:46.467Z,20.67
2016-12-12T04:38:46.187Z,20.7
2016-12-12T04:39:46.507Z,20.64
2016-12-12T04:40:46.540Z,20.7
2016-12-12T04:41:46.257Z,20.64
2016-12-12T04:42:45.985Z,20.62
2016-12-12T04:43:46.626Z,20.7
2016-12-12T04:44:46.047Z,20.66
2016-12-12T04:45:46.071Z,20.73
2016-12-12T04:46:46.408Z,20.62
2016-12-12T04:47:46.736Z,20.69
2016-12-12T04:48:46.481Z,20.62
2016-12-12T04:49:46.790Z,20.61
2016-12-12T04:50:46.818Z,20.72
2016-12-12T04:51:46.538Z,20.61
2016-12-12T04:52:46.563Z,20.73
2016-12-12T04:53:46.300Z,20.64
2016-12-12T04:54:46.629Z,20.59
2016-12-12T04:55:46.640Z,20.64
2016-12-12T04:56:46.965Z,20.64
2016-12-12T04:57:46.999Z,20.69
2016-12-12T04:58:46.734Z,20.61
2016-12-12T04:59:47.059Z,20.67
2016-12-12T05:00:46.780Z,20.67
2016-12-12T05:01:46.816Z,20.61
2016-12-12T05:02:46.842Z,20.72
2016-12-12T05:03:47.177Z,20.59
2016-12-12T05:04:47.182Z,20.64
2016-12-12T05:05:47.223Z,20.67
2016-12-12T05:06:46.948Z,20.64
2016-12-12T05:07:47.271Z,20.61
2016-12-12T05:08:47.329Z,20.61
2016-12-12T05:09:47.034Z,20.66
2016-12-12T05:10:47.051Z,20.69
2016-12-12T05:11:47.387Z,20.57
2016-12-12T05:12:47.108Z,20.61
2016-12-12T05:13:47.437Z,20.7
2016-12-12T05:14:47.473Z,20.69
2016-12-12T05:15:47.495Z,20.67
2016-12-12T05:16:46.919Z,20.66
2016-12-12T05:17:47.555Z,20.64
2016-12-12T05:18:47.577Z,20.66
2016-12-12T05:19:47.605Z,20.62
2016-12-12T05:20:47.318Z,20.59
2016-12-12T05:21:47.354Z,20.59
2016-12-12T05:22:47.680Z,20.58
2016-12-12T05:23:47.412Z,20.62
2016-12-12T05:24:47.757Z,20.66
2016-12-12T05:25:47.194Z,20.66
2016-12-12T05:26:47.804Z,20.64
2016-12-12T05:27:47.859Z,20.66
2016-12-12T05:28:47.556Z,20.59
2016-12-12T05:29:47.577Z,20.67
2016-12-12T05:30:47.905Z,20.62
2016-12-12T05:31:47.922Z,20.62
2016-12-12T05:32:47.971Z,20.66
2016-12-12T05:33:47.684Z,20.76
2016-12-12T05:34:48.004Z,20.72
2016-12-12T05:35:47.744Z,20.61
2016-12-12T05:36:47.767Z,20.73
2016-12-12T05:37:48.098Z,20.62
2016-12-12T05:38:47.512Z,20.74
2016-12-12T05:39:48.144Z,20.69
2016-12-12T05:40:48.185Z,20.69
2016-12-12T05:41:48.202Z,20.72
2016-12-12T05:42:47.924Z,20.77
2016-12-12T05:43:47.656Z,20.69
2016-12-12T05:44:47.992Z,20.73
2016-12-12T05:45:48.317Z,20.82
2016-12-12T05:46:48.033Z,20.79
2016-12-12T05:47:48.362Z,20.84
2016-12-12T05:48:48.091Z,20.87
2016-12-12T05:49:47.816Z,20.89
2016-12-12T05:50:48.453Z,20.88
2016-12-12T05:51:48.182Z,20.87
2016-12-12T05:52:48.210Z,20.94
2016-12-12T05:53:48.539Z,20.97
2016-12-12T05:54:48.556Z,20.97
2016-12-12T05:55:48.584Z,20.99
2016-12-12T05:56:48.313Z,20.97
2016-12-12T05:57:48.638Z,20.97
2016-12-12T05:58:48.366Z,21.01
2016-12-12T05:59:48.396Z,21.01
2016-12-12T06:00:48.408Z,20.98
2016-12-12T06:01:48.149Z,20.95
2016-12-12T06:02:48.479Z,20.99
2016-12-12T06:03:48.793Z,21.04
2016-12-12T06:04:48.528Z,21.07
2016-12-12T06:05:48.876Z,21.13
2016-12-12T06:06:48.581Z,21.09
2016-12-12T06:07:48.614Z,21.1
2016-12-12T06:08:48.634Z,21.12
2016-12-12T06:09:48.667Z,21.16
2016-12-12T06:10:49.000Z,21.14
2016-12-12T06:11:48.724Z,21.14
2016-12-12T06:12:49.054Z,21.22
2016-12-12T06:13:48.774Z,21.21
2016-12-12T06:14:49.111Z,21.14
2016-12-12T06:15:48.837Z,21.27
2016-12-12T06:16:49.156Z,21.29
2016-12-12T06:17:48.897Z,21.19
2016-12-12T06:18:48.622Z,21.28
2016-12-12T06:19:48.947Z,21.31
2016-12-12T06:20:48.967Z,21.28
2016-12-12T06:21:49.001Z,21.31
2016-12-12T06:22:48.725Z,21.34
2016-12-12T06:23:49.381Z,21.29
2016-12-12T06:24:49.079Z,21.34
2016-12-12T06:25:49.107Z,21.28
2016-12-12T06:26:49.136Z,21.38
2016-12-12T06:27:49.165Z,21.42
2016-12-12T06:28:49.490Z,21.38
2016-12-12T06:29:49.526Z,21.34
2016-12-12T06:30:49.252Z,21.38
2016-12-12T06:31:48.972Z,21.38
2016-12-12T06:32:49.305Z,21.46
2016-12-12T06:33:49.327Z,21.47
2016-12-12T06:34:49.654Z,21.47
2016-12-12T06:35:49.079Z,21.44
2016-12-12T06:36:49.407Z,21.5
2016-12-12T06:37:49.432Z,21.44
2016-12-12T06:38:49.777Z,21.54
2016-12-12T06:39:49.198Z,21.47
2016-12-12T06:40:49.827Z,21.52
2016-12-12T06:41:49.563Z,21.56
2016-12-12T06:42:49.580Z,21.61
2016-12-12T06:43:49.596Z,21.59
2016-12-12T06:44:49.325Z,21.58
2016-12-12T06:45:49.966Z,21.59
2016-12-12T06:46:49.991Z,21.58
2016-12-12T06:47:50.019Z,21.59
2016-12-12T06:48:49.439Z,21.59
2016-12-12T06:49:49.773Z,21.62
2016-12-12T06:50:49.498Z,21.67
2016-12-12T06:51:49.818Z,21.64
2016-12-12T06:52:49.547Z,21.67
2016-12-12T06:53:50.171Z,21.74
2016-12-12T06:54:50.200Z,21.68
2016-12-12T06:55:50.229Z,21.72
2016-12-12T06:56:49.962Z,21.67
2016-12-12T06:57:49.986Z,21.68
2016-12-12T06:58:50.023Z,21.75
2016-12-12T06:59:50.048Z,21.74
2016-12-12T07:00:49.777Z,21.69
2016-12-12T07:01:50.405Z,21.71
2016-12-12T07:02:50.131Z,21.69
2016-12-12T07:03:50.455Z,21.75
2016-12-12T07:04:50.480Z,21.79
2016-12-12T07:05:50.208Z,21.83
2016-12-12T07:06:50.238Z,21.72
2016-12-12T07:07:50.574Z,21.84
2016-12-12T07:08:49.993Z,21.8
2016-12-12T07:09:50.627Z,21.79
2016-12-12T07:10:50.052Z,21.84
2016-12-12T07:11:50.381Z,21.83
2016-12-12T07:12:50.714Z,21.8
2016-12-12T07:13:50.741Z,21.82
2016-12-12T07:14:50.468Z,21.83
2016-12-12T07:15:50.796Z,21.8
2016-12-12T07:16:50.521Z,21.84
2016-12-12T07:17:50.241Z,21.83
2016-12-12T07:18:50.878Z,21.88
2016-12-12T07:19:50.291Z,21.91
2016-12-12T07:20:50.640Z,21.83
2016-12-12T07:21:50.961Z,21.74
2016-12-12T07:22:50.690Z,21.83
2016-12-12T07:23:51.015Z,21.88
2016-12-12T07:24:50.749Z,21.9
2016-12-12T07:25:51.068Z,21.8
2016-12-12T07:26:51.103Z,21.91
2016-12-12T07:27:50.817Z,21.92
2016-12-12T07:28:50.850Z,21.91
2016-12-12T07:29:50.883Z,21.9
2016-12-12T07:30:51.220Z,21.92
2016-12-12T07:31:50.933Z,21.92
2016-12-12T07:32:51.265Z,21.84
2016-12-12T07:33:51.300Z,21.96
2016-12-12T07:34:51.318Z,21.94
2016-12-12T07:35:51.348Z,22.02
2016-12-12T07:36:51.076Z,21.94
2016-12-12T07:37:51.408Z,21.86
2016-12-12T07:38:51.466Z,21.88
2016-12-12T07:39:50.851Z,21.9
2016-12-12T07:40:51.495Z,22
2016-12-12T07:41:50.910Z,21.91
2016-12-12T07:42:51.546Z,21.99
2016-12-12T07:43:51.610Z,21.9
2016-12-12T07:44:51.282Z,21.96
2016-12-12T07:45:51.614Z,22
2016-12-12T07:46:51.368Z,21.86
2016-12-12T07:47:51.681Z,22.02
2016-12-12T07:48:51.717Z,22
2016-12-12T07:49:51.738Z,21.86
2016-12-12T07:50:51.467Z,21.96
2016-12-12T07:51:51.801Z,21.92
2016-12-12T07:52:51.545Z,21.92
2016-12-12T07:53:51.544Z,21.86
2016-12-12T07:54:51.578Z,21.9
2016-12-12T07:55:51.919Z,21.96
2016-12-12T07:56:51.640Z,21.86
2016-12-12T07:57:51.665Z,21.94
2016-12-12T07:58:51.690Z,21.88
2016-12-12T07:59:52.020Z,21.96
2016-12-12T08:00:52.043Z,21.96
2016-12-12T08:01:51.764Z,21.9
2016-12-12T08:02:51.807Z,21.84
2016-12-12T08:03:51.525Z,21.9
2016-12-12T08:04:51.862Z,21.75
2016-12-12T08:05:51.891Z,21.82
2016-12-12T08:06:51.615Z,21.94
2016-12-12T08:07:51.638Z,21.8
2016-12-12T08:08:51.965Z,21.88
2016-12-12T08:09:51.991Z,21.9
2016-12-12T08:10:52.315Z,21.9
2016-12-12T08:11:52.055Z,21.9
2016-12-12T08:12:52.380Z,21.82
2016-12-12T08:13:51.797Z,21.8
2016-12-12T08:14:52.450Z,21.82
2016-12-12T08:15:52.166Z,21.79
2016-12-12T08:16:51.899Z,21.82
2016-12-12T08:17:52.540Z,21.79
2016-12-12T08:18:52.252Z,21.75
2016-12-12T08:19:52.569Z,21.69
2016-12-12T08:20:52.298Z,21.77
2016-12-12T08:21:52.639Z,21.72
2016-12-12T08:22:52.364Z,21.75
2016-12-12T08:23:52.393Z,21.75
2016-12-12T08:24:52.425Z,21.74
2016-12-12T08:25:52.446Z,21.74
2016-12-12T08:26:52.474Z,21.71
2016-12-12T08:27:52.507Z,21.67
2016-12-12T08:28:52.539Z,21.71
2016-12-12T08:29:52.552Z,21.67
2016-12-12T08:30:52.577Z,21.68
2016-12-12T08:31:52.602Z,21.65
2016-12-12T08:32:52.635Z,21.65
2016-12-12T08:33:52.672Z,21.64
2016-12-12T08:34:52.700Z,21.65
2016-12-12T08:35:53.029Z,21.58
2016-12-12T08:36:53.062Z,21.61
2016-12-12T08:37:53.074Z,21.61
2016-12-12T08:38:53.107Z,21.59
2016-12-12T08:39:52.836Z,21.65
2016-12-12T08:40:52.561Z,21.59
2016-12-12T08:41:52.903Z,21.59
2016-12-12T08:42:52.618Z,21.62
2016-12-12T08:43:53.247Z,21.61
2016-12-12T08:44:53.280Z,21.58
2016-12-12T08:45:52.706Z,21.58
2016-12-12T08:46:53.333Z,21.54
2016-12-12T08:47:53.050Z,21.59
2016-12-12T08:48:53.094Z,21.52
2016-12-12T08:49:53.416Z,21.54
2016-12-12T08:50:53.137Z,21.58
2016-12-12T08:51:52.857Z,21.58
2016-12-12T08:54:01.838Z,21.61
2016-12-12T08:55:01.535Z,21.49
2016-12-12T08:56:01.572Z,21.49
2016-12-12T08:57:02.205Z,21.47
2016-12-12T08:58:02.221Z,21.54
2016-12-12T08:59:02.239Z,21.46
2016-12-12T09:00:02.286Z,21.52
2016-12-12T09:01:01.704Z,21.47
2016-12-12T09:02:02.029Z,21.47
2016-12-12T09:03:02.057Z,21.46
2016-12-12T09:04:02.094Z,21.46
2016-12-12T09:05:01.822Z,21.46
2016-12-12T09:06:01.839Z,21.44
2016-12-12T09:07:02.483Z,21.46
2016-12-12T09:08:02.200Z,21.53
2016-12-12T09:09:02.253Z,21.43
2016-12-12T09:10:02.566Z,21.46
2016-12-12T09:11:02.274Z,21.44
2016-12-12T09:12:02.307Z,21.4
2016-12-12T09:13:02.650Z,21.43
2016-12-12T09:14:02.684Z,21.42
2016-12-12T09:15:02.401Z,21.44
2016-12-12T09:16:02.414Z,21.43
2016-12-12T09:17:02.755Z,21.43
2016-12-12T09:18:02.788Z,21.46
2016-12-12T09:19:02.816Z,21.4
2016-12-12T09:20:02.849Z,21.32
2016-12-12T09:21:02.558Z,21.38
2016-12-12T09:22:02.923Z,21.38
2016-12-12T09:23:02.925Z,21.35
2016-12-12T09:24:02.340Z,21.34
2016-12-12T09:25:02.361Z,21.29
2016-12-12T09:26:02.397Z,21.38
2016-12-12T09:27:03.042Z,21.37
2016-12-12T09:28:02.771Z,21.34
2016-12-12T09:29:02.784Z,21.38
2016-12-12T09:30:02.812Z,21.37
2016-12-12T09:31:03.145Z,21.35
2016-12-12T09:32:02.882Z,21.43
2016-12-12T09:33:02.591Z,21.4
2016-12-12T09:34:02.923Z,21.4
2016-12-12T09:35:02.652Z,21.42
2016-12-12T09:36:03.280Z,21.35
2016-12-12T09:37:02.703Z,21.29
2016-12-12T09:38:02.740Z,21.4
2016-12-12T09:39:03.059Z,21.4
2016-12-12T09:40:02.796Z,21.38
2016-12-12T09:41:03.124Z,21.38
2016-12-12T09:42:03.153Z,21.29
2016-12-12T09:43:03.170Z,21.32
2016-12-12T09:44:03.503Z,21.35
2016-12-12T09:45:03.531Z,21.31
2016-12-12T09:46:03.260Z,21.34
2016-12-12T09:47:02.985Z,21.34
2016-12-12T09:48:03.313Z,21.24
2016-12-12T09:49:03.042Z,21.22
2016-12-12T09:50:03.680Z,21.25
2016-12-12T09:51:03.691Z,21.32
2016-12-12T09:52:03.425Z,21.25
2016-12-12T09:53:03.445Z,21.28
2016-12-12T09:54:03.175Z,21.17
2016-12-12T09:55:03.808Z,21.21
2016-12-12T09:56:03.235Z,21.31
2016-12-12T09:57:03.564Z,21.22
2016-12-12T09:58:03.289Z,21.22
2016-12-12T09:59:03.626Z,21.29
2016-12-12T10:00:03.342Z,21.24
2016-12-12T10:01:03.983Z,21.28
2016-12-12T10:02:03.395Z,21.29
2016-12-12T10:03:03.728Z,21.31
2016-12-12T10:04:03.453Z,21.25
2016-12-12T10:05:03.794Z,21.19
2016-12-12T10:06:03.815Z,21.16
2016-12-12T10:07:04.147Z,21.25
2016-12-12T10:08:03.867Z,21.19
2016-12-12T10:09:03.880Z,21.27
2016-12-12T10:10:04.225Z,21.16
2016-12-12T10:11:04.254Z,21.25
2016-12-12T10:12:03.678Z,21.24
2016-12-12T10:13:04.011Z,21.17
2016-12-12T10:14:04.341Z,21.17
2016-12-12T10:15:04.065Z,21.14
2016-12-12T10:16:04.094Z,21.17
2016-12-12T10:17:04.114Z,21.17
2016-12-12T10:18:04.144Z,21.13
2016-12-12T10:19:04.167Z,21.21
2016-12-12T10:20:04.200Z,21.07
2016-12-12T10:21:04.529Z,21.14
2016-12-12T10:22:04.566Z,21.24
2016-12-12T10:23:03.982Z,21.22
2016-12-12T10:24:04.620Z,21.24
2016-12-12T10:25:04.341Z,21.16
2016-12-12T10:26:04.361Z,21.14
2016-12-12T10:27:04.694Z,21.17
2016-12-12T10:28:04.737Z,21.17
2016-12-12T10:29:04.751Z,21.1
2016-12-12T10:30:04.475Z,21.13
2016-12-12T10:31:04.812Z,21.13
2016-12-12T10:32:04.537Z,21.24
2016-12-12T10:33:04.566Z,21.24
2016-12-12T10:34:04.886Z,21.13
2016-12-12T10:35:04.607Z,21.21
2016-12-12T10:36:04.946Z,21.21
2016-12-12T10:37:04.372Z,21.17
2016-12-12T10:38:04.697Z,21.21
2016-12-12T10:39:05.038Z,21.13
2016-12-12T10:40:05.063Z,21.21
2016-12-12T10:41:05.100Z,21.16
2016-12-12T10:42:05.112Z,21.16
2016-12-12T10:43:05.141Z,21.17
2016-12-12T10:44:05.161Z,21.12
2016-12-12T10:45:04.886Z,21.17
2016-12-12T10:46:05.223Z,21.12
2016-12-12T10:47:05.260Z,21.14
2016-12-12T10:48:05.284Z,21.16
2016-12-12T10:49:04.701Z,21.16
2016-12-12T10:50:04.731Z,21.14
2016-12-12T10:51:05.067Z,21.17
2016-12-12T10:52:04.787Z,21.16
2016-12-12T10:53:05.116Z,21.17
2016-12-12T10:54:05.436Z,21.13
2016-12-12T10:55:05.182Z,21.13
2016-12-12T10:56:05.510Z,21.04
2016-12-12T10:57:04.926Z,21.13
2016-12-12T10:58:05.567Z,21.14
2016-12-12T10:59:05.284Z,21.1
2016-12-12T11:00:05.313Z,21.14
2016-12-12T11:01:05.652Z,21.16
2016-12-12T11:02:05.670Z,21.17
2016-12-12T11:03:05.699Z,21.16
2016-12-12T11:04:05.732Z,21.17
2016-12-12T11:05:05.448Z,21.1
2016-12-12T11:06:05.777Z,21.14
2016-12-12T11:07:06.026Z,21.1
2016-12-12T11:08:05.526Z,21.12
2016-12-12T11:09:05.555Z,21.14
2016-12-12T11:10:05.271Z,21.06
2016-12-12T11:11:05.920Z,21.13
2016-12-12T11:12:05.953Z,21.04
2016-12-12T11:13:05.670Z,21.07
2016-12-12T11:14:05.691Z,21.14
2016-12-12T11:15:05.737Z,21.13
2016-12-12T11:16:05.778Z,21.04
2016-12-12T11:17:06.084Z,21.13
2016-12-12T11:18:06.101Z,21.12
2016-12-12T11:19:05.830Z,21.06
2016-12-12T11:20:05.855Z,21.09
2016-12-12T11:21:05.592Z,21.09
2016-12-12T11:22:05.918Z,21.1
2016-12-12T11:23:05.969Z,21.07
2016-12-12T11:24:06.278Z,21.12
2016-12-12T11:25:06.299Z,21.06
2016-12-12T11:26:06.031Z,21.06
2016-12-12T11:27:06.360Z,21.09
2016-12-12T11:28:06.381Z,21.07
2016-12-12T11:29:06.429Z,21.06
2016-12-12T11:30:05.838Z,21.12
2016-12-12T11:31:06.169Z,21.06
2016-12-12T11:32:06.188Z,21.06
2016-12-12T11:33:06.521Z,21.03
2016-12-12T11:34:06.548Z,21.06
2016-12-12T11:35:06.605Z,21.07
2016-12-12T11:36:05.994Z,21.04
2016-12-12T11:37:06.027Z,21.03
2016-12-12T11:38:06.364Z,21.07
2016-12-12T11:39:06.084Z,21.04
2016-12-12T11:40:06.117Z,21.12
2016-12-12T11:41:06.437Z,21.09
2016-12-12T11:42:06.762Z,21.09
2016-12-12T11:43:06.797Z,21.1
2016-12-12T11:44:06.836Z,21.07
2016-12-12T11:45:06.840Z,21.04
2016-12-12T11:46:06.581Z,21.06
2016-12-12T11:47:06.606Z,21.1
2016-12-12T11:48:06.638Z,21.04
2016-12-12T11:49:06.971Z,21.03
2016-12-12T11:50:06.692Z,21.03
2016-12-12T11:51:07.012Z,21.06
2016-12-12T11:52:07.038Z,21.07
2016-12-12T11:53:07.078Z,20.99
2016-12-12T11:54:07.103Z,21.09
2016-12-12T11:55:07.136Z,21.04
2016-12-12T11:56:06.861Z,21.04
2016-12-12T11:57:06.577Z,21.04
2016-12-12T11:58:06.909Z,21.06
2016-12-12T11:59:06.930Z,21.04
2016-12-12T12:00:07.268Z,21.06
2016-12-12T12:01:06.999Z,21.03
2016-12-12T12:02:07.026Z,21.03
2016-12-12T12:03:07.353Z,21.04
2016-12-12T12:04:06.778Z,21.04
2016-12-12T12:05:07.419Z,20.99
2016-12-12T12:06:07.130Z,21.07
2016-12-12T12:07:07.156Z,21.01
2016-12-12T12:08:07.488Z,21.09
2016-12-12T12:09:07.526Z,21.03
2016-12-12T12:10:07.546Z,20.95
2016-12-12T12:11:06.972Z,20.99
2016-12-12T12:12:07.302Z,20.94
2016-12-12T12:13:07.324Z,20.98
2016-12-12T12:14:07.361Z,21.09
2016-12-12T12:15:07.685Z,20.95
2016-12-12T12:16:07.710Z,21.1
2016-12-12T12:17:07.123Z,20.95
2016-12-12T12:18:07.464Z,20.95
2016-12-12T12:19:07.793Z,21.06
2016-12-12T12:20:07.833Z,21.12
2016-12-12T12:21:07.554Z,21.07
2016-12-12T12:22:07.867Z,21.04
2016-12-12T12:23:07.899Z,20.97
2016-12-12T12:24:07.936Z,21.01
2016-12-12T12:25:07.960Z,21.04
2016-12-12T12:26:07.985Z,20.95
2016-12-12T12:27:08.010Z,21.07
2016-12-12T12:28:07.750Z,21.04
2016-12-12T12:29:07.767Z,21.03
2016-12-12T12:30:07.788Z,21.12
2016-12-12T12:31:07.820Z,21.06
2016-12-12T12:32:08.152Z,20.99
2016-12-12T12:33:08.181Z,20.92
2016-12-12T12:34:08.212Z,21.06
2016-12-12T12:35:08.263Z,21.09
2016-12-12T12:36:07.967Z,21.04
2016-12-12T12:37:08.297Z,21.06
2016-12-12T12:38:08.009Z,21.03
2016-12-12T12:39:08.024Z,21.07
2016-12-12T12:40:08.381Z,21.03
2016-12-12T12:41:08.410Z,21.01
2016-12-12T12:42:08.119Z,20.98
2016-12-12T12:43:08.448Z,21.03
2016-12-12T12:44:08.481Z,21.04
2016-12-12T12:45:08.521Z,21.03
2016-12-12T12:46:08.230Z,21.03
2016-12-12T12:47:08.554Z,20.99
2016-12-12T12:48:08.591Z,21.01
2016-12-12T12:49:08.016Z,21.1
2016-12-12T12:50:08.657Z,21.03
2016-12-12T12:51:08.677Z,20.97
2016-12-12T12:52:08.701Z,20.97
2016-12-12T12:53:08.731Z,20.95
2016-12-12T12:54:08.155Z,21.06
2016-12-12T12:55:08.784Z,21.03
2016-12-12T12:56:08.513Z,20.97